createdAt,value
2022-09-20T00:01:32.196Z,39.60
2022-09-20T00:04:04.806Z,40.00
2022-09-20T00:06:34.539Z,40.30
2022-09-20T00:09:03.338Z,40.00
2022-09-20T00:11:34.024Z,39.70
2022-09-20T00:14:08.536Z,40.10
2022-09-20T00:16:41.671Z,39.30
2022-09-20T00:19:18.051Z,39.80
2022-09-20T00:21:46.147Z,39.90
2022-09-20T00:24:14.171Z,40.40
2022-09-20T00:26:42.149Z,39.50
2022-09-20T00:29:10.845Z,40.50
2022-09-20T00:31:42.721Z,40.70
2022-09-20T00:34:29.549Z,40.70
2022-09-20T00:36:58.005Z,40.50
2022-09-20T00:39:26.484Z,40.20
2022-09-20T00:41:54.464Z,40.70
2022-09-20T00:44:57.236Z,40.70
2022-09-20T00:47:38.252Z,40.70
2022-09-20T00:50:20.696Z,40.50
2022-09-20T00:52:53.343Z,40.90
2022-09-20T00:55:22.381Z,40.70
2022-09-20T00:57:50.535Z,41.30
2022-09-20T01:00:18.656Z,41.30
2022-09-20T01:02:53.192Z,41.20
2022-09-20T01:05:22.009Z,41.20
2022-09-20T01:07:52.238Z,41.70
2022-09-20T01:10:20.357Z,41.30
2022-09-20T01:12:50.524Z,41.20
2022-09-20T01:15:19.444Z,40.80
2022-09-20T01:17:52.964Z,41.30
2022-09-20T01:20:25.263Z,41.00
2022-09-20T01:23:23.324Z,40.80
2022-09-20T01:26:31.568Z,41.30
2022-09-20T01:29:11.920Z,41.10
2022-09-20T01:31:48.950Z,41.40
2022-09-20T01:34:22.291Z,41.40
2022-09-20T01:36:55.086Z,41.30
2022-09-20T01:39:37.556Z,41.40
2022-09-20T01:42:09.640Z,41.40
2022-09-20T01:44:49.743Z,41.40
2022-09-20T01:47:29.549Z,41.70
2022-09-20T01:50:07.145Z,41.70
2022-09-20T01:53:17.558Z,41.80
2022-09-20T01:56:39.212Z,41.60
2022-09-20T01:59:46.298Z,41.70
2022-09-20T02:02:55.252Z,41.70
2022-09-20T02:05:51.999Z,41.70
2022-09-20T02:09:02.351Z,41.80
2022-09-20T02:11:45.799Z,42.10
2022-09-20T02:14:33.820Z,41.70
2022-09-20T02:17:14.439Z,41.80
2022-09-20T02:19:57.272Z,41.90
2022-09-20T02:22:43.333Z,41.30
2022-09-20T02:25:44.268Z,41.50
2022-09-20T02:28:27.040Z,41.70
2022-09-20T02:31:05.585Z,41.70
2022-09-20T02:33:59.865Z,41.50
2022-09-20T02:36:41.745Z,41.50
2022-09-20T02:39:16.693Z,42.00
2022-09-20T02:41:56.827Z,42.00
2022-09-20T02:44:47.232Z,41.50
2022-09-20T02:47:26.294Z,41.50
2022-09-20T02:50:22.708Z,42.00
2022-09-20T02:53:06.676Z,41.70
2022-09-20T02:55:43.453Z,42.10
2022-09-20T02:58:29.196Z,41.80
2022-09-20T03:01:08.074Z,41.70
2022-09-20T03:03:48.782Z,41.50
2022-09-20T03:06:30.121Z,42.10
2022-09-20T03:09:08.665Z,42.00
2022-09-20T03:11:45.079Z,41.80
2022-09-20T03:14:22.981Z,41.40
2022-09-20T03:17:08.272Z,42.00
2022-09-20T03:19:52.235Z,41.60
2022-09-20T03:22:35.226Z,42.30
2022-09-20T03:25:31.631Z,42.10
2022-09-20T03:28:11.875Z,42.60
2022-09-20T03:30:57.134Z,42.10
2022-09-20T03:33:38.993Z,41.90
2022-09-20T03:36:25.749Z,41.70
2022-09-20T03:39:20.855Z,42.00
2022-09-20T03:42:17.651Z,42.10
2022-09-20T03:45:30.523Z,41.90
2022-09-20T03:48:16.402Z,42.00
2022-09-20T03:51:01.471Z,42.10
2022-09-20T03:53:59.658Z,42.00
2022-09-20T03:56:58.682Z,42.30
2022-09-20T04:00:07.235Z,41.60
2022-09-20T04:02:54.796Z,42.20
2022-09-20T04:05:35.216Z,42.20
2022-09-20T04:08:15.464Z,42.20
2022-09-20T04:11:00.547Z,42.00
2022-09-20T04:13:38.147Z,42.50
2022-09-20T04:16:24.425Z,42.00
2022-09-20T04:18:58.805Z,42.10
2022-09-20T04:21:35.264Z,42.20
2022-09-20T04:24:11.640Z,42.10
2022-09-20T04:26:49.651Z,42.10
2022-09-20T04:29:33.552Z,42.20
2022-09-20T04:32:13.595Z,42.60
2022-09-20T04:35:05.413Z,42.70
2022-09-20T04:37:38.310Z,42.40
2022-09-20T04:40:21.026Z,42.40
2022-09-20T04:43:32.399Z,42.50
2022-09-20T04:47:05.896Z,42.60
2022-09-20T04:50:31.142Z,42.50
2022-09-20T04:53:35.348Z,42.50
2022-09-20T04:56:16.432Z,41.90
2022-09-20T04:59:07.730Z,41.50
2022-09-20T05:02:30.979Z,41.60
2022-09-20T05:05:39.173Z,41.80
2022-09-20T05:08:58.003Z,41.20
2022-09-20T05:11:53.476Z,40.90
2022-09-20T05:15:01.316Z,41.10
2022-09-20T05:17:45.071Z,41.00
2022-09-20T05:20:48.516Z,40.60
2022-09-20T05:23:46.601Z,40.40
2022-09-20T05:26:24.741Z,40.10
2022-09-20T05:29:01.004Z,40.00
2022-09-20T05:31:40.231Z,39.60
2022-09-20T05:34:18.300Z,39.70
2022-09-20T05:36:56.428Z,39.50
2022-09-20T05:39:38.051Z,39.90
2022-09-20T05:42:18.186Z,39.30
2022-09-20T05:44:58.946Z,39.20
2022-09-20T05:47:41.491Z,39.00
2022-09-20T05:50:40.292Z,39.00
2022-09-20T05:53:46.928Z,39.10
2022-09-20T05:56:26.492Z,39.10
2022-09-20T05:59:22.437Z,39.00
2022-09-20T06:02:08.140Z,38.90
2022-09-20T06:04:46.400Z,38.40
2022-09-20T06:07:28.983Z,38.90
2022-09-20T06:10:39.998Z,38.70
2022-09-20T06:14:01.008Z,38.60
2022-09-20T06:16:42.867Z,38.50
2022-09-20T06:19:21.213Z,38.70
2022-09-20T06:21:55.307Z,38.50
2022-09-20T06:24:37.883Z,38.50
2022-09-20T06:27:12.049Z,38.40
2022-09-20T06:29:45.749Z,39.20
2022-09-20T06:32:18.341Z,38.80
2022-09-20T06:34:47.114Z,38.50
2022-09-20T06:37:52.834Z,38.20
2022-09-20T06:40:52.976Z,38.00
2022-09-20T06:43:20.917Z,38.00
2022-09-20T06:45:49.070Z,37.40
2022-09-20T06:48:19.175Z,38.00
2022-09-20T06:50:47.169Z,37.50
2022-09-20T06:53:19.811Z,37.80
2022-09-20T06:55:48.700Z,37.50
2022-09-20T06:58:16.652Z,37.40
2022-09-20T07:00:44.812Z,37.10
2022-09-20T07:03:13.584Z,37.30
2022-09-20T07:05:42.248Z,37.50
2022-09-20T07:08:10.542Z,37.50
2022-09-20T07:10:40.028Z,37.10
2022-09-20T07:13:08.037Z,36.70
2022-09-20T07:15:36.064Z,36.30
2022-09-20T07:18:04.044Z,36.90
2022-09-20T07:20:32.026Z,36.70
2022-09-20T07:23:00.513Z,36.20
2022-09-20T07:25:28.808Z,35.70
2022-09-20T07:28:00.937Z,35.70
2022-09-20T07:30:29.012Z,36.40
2022-09-20T07:32:56.999Z,35.90
2022-09-20T07:35:25.676Z,35.80
2022-09-20T07:37:59.905Z,36.30
2022-09-20T07:40:27.963Z,35.90
2022-09-20T07:42:58.493Z,35.70
2022-09-20T07:45:27.854Z,35.20
2022-09-20T07:47:56.035Z,35.40
2022-09-20T07:50:24.039Z,36.20
2022-09-20T07:52:52.179Z,35.30
2022-09-20T07:55:20.156Z,36.20
2022-09-20T07:57:48.157Z,35.80
2022-09-20T08:00:16.471Z,36.50
2022-09-20T08:02:45.944Z,36.00
2022-09-20T08:05:13.952Z,35.40
2022-09-20T08:07:41.924Z,34.90
2022-09-20T08:10:11.073Z,34.70
2022-09-20T08:15:27.352Z,35.20
2022-09-20T08:17:56.653Z,35.20
2022-09-20T08:20:24.684Z,34.40
2022-09-20T08:23:19.319Z,34.10
2022-09-20T08:25:43.314Z,34.50
2022-09-20T08:28:11.337Z,34.90
2022-09-20T08:30:39.336Z,33.90
2022-09-20T08:33:08.975Z,33.90
2022-09-20T08:35:57.840Z,33.50
2022-09-20T08:41:25.164Z,35.20
2022-09-20T08:43:58.030Z,34.20
2022-09-20T08:46:31.791Z,34.00
2022-09-20T08:49:01.773Z,34.00
2022-09-20T08:51:36.858Z,33.70
2022-09-20T08:54:07.989Z,33.90
2022-09-20T08:56:37.797Z,33.30
2022-09-20T08:59:09.720Z,33.30
2022-09-20T09:01:37.756Z,33.30
2022-09-20T09:04:19.713Z,33.00
2022-09-20T09:06:48.384Z,33.20
2022-09-20T09:09:24.248Z,33.10
2022-09-20T09:11:53.688Z,33.20
2022-09-20T09:14:46.581Z,33.10
2022-09-20T09:17:17.715Z,32.90
2022-09-20T09:19:50.355Z,32.90
2022-09-20T09:22:31.501Z,32.70
2022-09-20T09:25:25.123Z,32.80
2022-09-20T09:27:56.953Z,32.60
2022-09-20T09:30:28.509Z,32.30
2022-09-20T09:33:24.999Z,32.20
2022-09-20T09:35:58.972Z,32.10
2022-09-20T09:38:29.993Z,32.20
2022-09-20T09:41:00.343Z,32.00
2022-09-20T09:43:33.424Z,32.20
2022-09-20T09:46:21.361Z,32.30
2022-09-20T09:48:51.858Z,31.70
2022-09-20T09:51:23.377Z,31.80
2022-09-20T09:53:52.736Z,32.00
2022-09-20T09:57:03.713Z,31.70
2022-09-20T09:59:55.911Z,31.80
2022-09-20T10:02:57.360Z,31.90
2022-09-20T10:05:31.506Z,31.80
2022-09-20T10:08:18.486Z,31.70
2022-09-20T10:11:03.761Z,31.70
2022-09-20T10:13:41.131Z,31.60
2022-09-20T10:16:20.968Z,31.80
2022-09-20T10:19:01.643Z,31.70
2022-09-20T10:21:50.727Z,31.60
2022-09-20T10:24:34.905Z,31.40
2022-09-20T10:27:37.483Z,31.20
2022-09-20T10:30:12.225Z,31.20
2022-09-20T10:33:00.933Z,31.20
2022-09-20T10:35:46.844Z,31.00
2022-09-20T10:38:19.625Z,30.90
2022-09-20T10:41:39.853Z,31.00
2022-09-20T10:44:16.654Z,31.20
2022-09-20T10:46:57.850Z,31.10
2022-09-20T10:49:33.521Z,31.40
2022-09-20T10:52:25.554Z,31.10
2022-09-20T10:55:09.613Z,31.40
2022-09-20T10:58:33.855Z,31.10
2022-09-20T11:01:08.899Z,31.30
2022-09-20T11:04:14.475Z,31.50
2022-09-20T11:06:52.141Z,31.30
2022-09-20T11:09:26.036Z,31.70
2022-09-20T11:12:01.106Z,31.70
2022-09-20T11:14:35.904Z,31.50
2022-09-20T11:17:09.343Z,31.70
2022-09-20T11:19:49.824Z,31.50
2022-09-20T11:22:22.888Z,31.60
2022-09-20T11:24:56.667Z,32.00
2022-09-20T11:27:32.028Z,31.60
2022-09-20T11:30:08.223Z,31.80
2022-09-20T11:32:42.163Z,31.70
2022-09-20T11:35:27.173Z,31.70
2022-09-20T11:38:11.110Z,31.70
2022-09-20T11:40:44.455Z,31.70
2022-09-20T11:43:15.705Z,31.70
2022-09-20T11:45:46.551Z,31.70
2022-09-20T11:48:19.581Z,31.70
2022-09-20T11:51:26.936Z,31.60
2022-09-20T11:54:16.147Z,31.70
2022-09-20T11:56:51.983Z,31.60
2022-09-20T11:59:31.448Z,31.60
2022-09-20T12:02:04.784Z,31.40
2022-09-20T12:04:38.067Z,31.50
2022-09-20T12:07:18.265Z,31.80
2022-09-20T12:09:54.352Z,31.70
2022-09-20T12:12:33.933Z,31.60
2022-09-20T12:15:05.861Z,31.60
2022-09-20T12:18:37.334Z,31.50
2022-09-20T12:21:15.309Z,31.70
2022-09-20T12:24:23.638Z,31.70
2022-09-20T12:26:56.776Z,31.60
2022-09-20T12:29:57.204Z,32.00
2022-09-20T12:33:01.024Z,31.80
2022-09-20T12:36:01.025Z,31.30
2022-09-20T12:38:58.011Z,31.30
2022-09-20T12:41:28.964Z,30.50
2022-09-20T12:44:06.373Z,30.00
2022-09-20T12:46:44.060Z,30.20
2022-09-20T12:49:50.635Z,30.00
2022-09-20T12:52:47.228Z,29.70
2022-09-20T12:55:39.868Z,29.50
2022-09-20T12:58:49.703Z,29.10
2022-09-20T13:01:35.605Z,29.30
2022-09-20T13:04:56.146Z,29.30
2022-09-20T13:07:53.606Z,28.90
2022-09-20T13:10:33.683Z,29.20
2022-09-20T13:13:23.061Z,28.50
2022-09-20T13:15:54.504Z,29.30
2022-09-20T13:18:25.083Z,29.50
2022-09-20T13:20:53.819Z,29.30
2022-09-20T13:23:27.206Z,29.40
2022-09-20T13:25:58.796Z,29.90
2022-09-20T13:28:36.159Z,29.80
2022-09-20T13:31:31.983Z,29.20
2022-09-20T13:34:22.183Z,29.40
2022-09-20T13:36:56.325Z,29.50
2022-09-20T13:39:36.195Z,29.50
2022-09-20T13:42:19.254Z,29.50
2022-09-20T13:44:48.700Z,29.50
2022-09-20T13:47:26.530Z,30.00
2022-09-20T13:50:01.957Z,29.50
2022-09-20T13:52:32.829Z,29.50
2022-09-20T13:55:01.001Z,29.00
2022-09-20T13:57:31.251Z,29.60
2022-09-20T14:00:01.645Z,29.50
2022-09-20T14:02:33.338Z,29.70
2022-09-20T14:05:05.611Z,29.80
2022-09-20T14:07:36.634Z,29.40
2022-09-20T14:10:05.831Z,29.40
2022-09-20T14:12:35.703Z,29.70
2022-09-20T14:15:16.089Z,29.70
2022-09-20T14:17:44.154Z,29.70
2022-09-20T14:20:16.528Z,29.60
2022-09-20T14:22:45.772Z,30.00
2022-09-20T14:25:27.397Z,29.50
2022-09-20T14:28:19.414Z,29.70
2022-09-20T14:30:49.273Z,29.70
2022-09-20T14:33:20.612Z,29.90
2022-09-20T14:35:50.600Z,29.80
2022-09-20T14:38:23.879Z,28.90
2022-09-20T14:40:52.785Z,29.30
2022-09-20T14:43:27.816Z,29.30
2022-09-20T14:45:58.912Z,29.20
2022-09-20T14:48:37.545Z,29.10
2022-09-20T14:51:25.296Z,28.80
2022-09-20T14:54:18.171Z,28.70
2022-09-20T14:56:53.651Z,28.90
2022-09-20T14:59:26.707Z,28.50
2022-09-20T15:02:05.494Z,28.60
2022-09-20T15:04:37.589Z,28.60
2022-09-20T15:07:10.406Z,28.90
2022-09-20T15:09:38.837Z,29.00
2022-09-20T15:12:13.542Z,29.00
2022-09-20T15:14:42.890Z,29.10
2022-09-20T15:17:17.315Z,28.80
2022-09-20T15:19:45.252Z,28.90
2022-09-20T15:22:14.017Z,29.10
2022-09-20T15:24:42.791Z,28.80
2022-09-20T15:27:11.806Z,29.60
2022-09-20T15:29:40.039Z,29.70
2022-09-20T15:32:11.940Z,29.70
2022-09-20T15:34:40.009Z,29.70
2022-09-20T15:37:08.339Z,29.70
2022-09-20T15:39:36.551Z,29.80
2022-09-20T15:42:05.293Z,29.80
2022-09-20T15:44:33.940Z,29.80
2022-09-20T15:47:03.002Z,29.90
2022-09-20T15:49:33.193Z,30.20
2022-09-20T15:52:02.225Z,30.10
2022-09-20T15:54:30.142Z,29.90
2022-09-20T15:56:58.318Z,30.00
2022-09-20T15:59:26.347Z,30.40
2022-09-20T16:01:54.329Z,30.30
2022-09-20T16:04:23.924Z,30.40
2022-09-20T16:06:53.275Z,30.30
2022-09-20T16:09:21.924Z,30.30
2022-09-20T16:11:50.205Z,29.80
2022-09-20T16:14:18.234Z,30.00
2022-09-20T16:16:46.376Z,30.00
2022-09-20T16:19:20.697Z,30.30
2022-09-20T16:21:57.825Z,30.80
2022-09-20T16:24:30.710Z,30.80
2022-09-20T16:27:00.742Z,30.30
2022-09-20T16:29:29.760Z,30.80
2022-09-20T16:31:59.238Z,30.70
2022-09-20T16:34:31.111Z,30.80
2022-09-20T16:37:01.922Z,31.30
2022-09-20T16:39:33.335Z,31.00
2022-09-20T16:42:04.329Z,31.70
2022-09-20T16:44:33.068Z,31.90
2022-09-20T16:47:03.304Z,32.20
2022-09-20T16:49:31.394Z,32.20
2022-09-20T16:51:59.504Z,32.20
2022-09-20T16:54:31.888Z,32.20
2022-09-20T16:57:01.964Z,32.60
2022-09-20T16:59:30.336Z,32.50
2022-09-20T17:01:58.587Z,32.40
2022-09-20T17:04:26.734Z,33.00
2022-09-20T17:06:55.515Z,32.70
2022-09-20T17:09:23.626Z,32.40
2022-09-20T17:11:51.837Z,32.60
2022-09-20T17:14:22.036Z,33.10
2022-09-20T17:16:50.221Z,33.20
2022-09-20T17:19:21.027Z,33.00
2022-09-20T17:21:51.103Z,33.10
2022-09-20T17:24:21.112Z,32.90
2022-09-20T17:26:52.219Z,33.20
2022-09-20T17:29:22.103Z,33.30
2022-09-20T17:31:55.664Z,33.10
2022-09-20T17:34:26.204Z,33.10
2022-09-20T17:36:55.176Z,33.30
2022-09-20T17:39:23.460Z,33.00
2022-09-20T17:41:51.683Z,32.90
2022-09-20T17:44:21.351Z,33.00
2022-09-20T17:46:50.878Z,33.70
2022-09-20T17:49:22.227Z,33.60
2022-09-20T17:51:52.504Z,33.20
2022-09-20T17:54:21.833Z,33.10
2022-09-20T17:56:52.084Z,33.50
2022-09-20T17:59:22.023Z,33.30
2022-09-20T18:01:52.274Z,33.30
2022-09-20T18:04:21.276Z,33.60
2022-09-20T18:06:51.594Z,33.60
2022-09-20T18:09:22.047Z,33.80
2022-09-20T18:11:52.701Z,33.90
2022-09-20T18:14:24.208Z,33.60
2022-09-20T18:16:53.531Z,33.20
2022-09-20T18:19:22.574Z,33.70
2022-09-20T18:21:51.257Z,33.60
2022-09-20T18:24:19.333Z,33.80
2022-09-20T18:26:47.293Z,33.80
2022-09-20T18:29:18.062Z,33.70
2022-09-20T18:31:54.276Z,34.00
2022-09-20T18:34:24.267Z,33.80
2022-09-20T18:36:54.548Z,33.80
2022-09-20T18:39:22.997Z,33.80
2022-09-20T18:41:51.309Z,34.00
2022-09-20T18:44:19.577Z,33.60
2022-09-20T18:46:49.539Z,33.40
2022-09-20T18:49:17.690Z,33.50
2022-09-20T18:51:47.333Z,33.50
2022-09-20T18:54:16.139Z,33.40
2022-09-20T18:56:49.657Z,33.70
2022-09-20T18:59:20.145Z,33.50
2022-09-20T19:02:09.396Z,33.30
2022-09-20T19:05:13.925Z,33.40
2022-09-20T19:08:10.352Z,33.40
2022-09-20T19:10:45.308Z,33.20
2022-09-20T19:13:26.849Z,33.30
2022-09-20T19:16:18.467Z,33.40
2022-09-20T19:19:09.247Z,33.30
2022-09-20T19:21:44.790Z,33.20
2022-09-20T19:24:29.424Z,33.30
2022-09-20T19:26:58.192Z,33.20
2022-09-20T19:29:28.888Z,33.30
2022-09-20T19:32:00.789Z,33.10
2022-09-20T19:34:32.569Z,32.90
2022-09-20T19:37:19.896Z,33.40
2022-09-20T19:40:20.518Z,33.00
2022-09-20T19:43:03.540Z,33.20
2022-09-20T19:45:43.613Z,33.10
2022-09-20T19:48:18.511Z,33.00
2022-09-20T19:50:52.510Z,32.80
2022-09-20T19:53:24.073Z,32.80
2022-09-20T19:55:57.472Z,33.10
2022-09-20T19:58:26.340Z,32.70
2022-09-20T20:00:54.889Z,32.90
2022-09-20T20:03:33.368Z,33.20
2022-09-20T20:06:11.209Z,32.80
2022-09-20T20:08:45.753Z,32.80
2022-09-20T20:11:27.476Z,33.00
2022-09-20T20:14:08.297Z,32.90
2022-09-20T20:16:50.709Z,32.70
2022-09-20T20:19:41.600Z,32.90
2022-09-20T20:22:29.512Z,32.90
2022-09-20T20:24:58.667Z,33.10
2022-09-20T20:27:28.238Z,32.70
2022-09-20T20:29:56.645Z,32.60
2022-09-20T20:32:25.743Z,32.60
2022-09-20T20:34:53.758Z,32.70
2022-09-20T20:37:23.894Z,32.50
2022-09-20T20:39:52.193Z,32.70
2022-09-20T20:42:21.571Z,32.30
2022-09-20T20:44:49.587Z,32.60
2022-09-20T20:47:17.616Z,32.20
2022-09-20T20:49:47.530Z,32.10
2022-09-20T20:52:18.746Z,32.10
2022-09-20T20:54:48.676Z,32.40
2022-09-20T20:57:18.898Z,32.50
2022-09-20T20:59:46.896Z,32.60
2022-09-20T21:02:14.875Z,32.80
2022-09-20T21:04:42.855Z,32.50
2022-09-20T21:07:11.060Z,32.70
2022-09-20T21:09:39.618Z,32.80
2022-09-20T21:12:09.396Z,32.90
2022-09-20T21:14:38.075Z,33.00
2022-09-20T21:17:06.061Z,32.80
2022-09-20T21:19:34.093Z,33.00
2022-09-20T21:22:02.086Z,33.60
2022-09-20T21:24:30.091Z,33.60
2022-09-20T21:26:58.037Z,33.10
2022-09-20T21:29:28.311Z,33.30
2022-09-20T21:31:56.232Z,34.10
2022-09-20T21:34:24.858Z,33.70
2022-09-20T21:36:52.828Z,33.20
2022-09-20T21:39:20.798Z,34.20
2022-09-20T21:41:48.800Z,34.00
2022-09-20T21:44:17.249Z,34.00
2022-09-20T21:46:48.252Z,34.90
2022-09-20T21:49:16.272Z,34.00
2022-09-20T21:51:45.250Z,34.70
2022-09-20T21:54:13.289Z,34.90
2022-09-20T21:56:41.846Z,34.60
2022-09-20T21:59:09.851Z,35.10
2022-09-20T22:01:40.123Z,35.20
2022-09-20T22:04:11.617Z,35.20
2022-09-20T22:06:42.053Z,35.50
2022-09-20T22:09:12.223Z,35.80
2022-09-20T22:11:42.846Z,36.00
2022-09-20T22:14:11.885Z,36.10
2022-09-20T22:16:42.443Z,35.90
2022-09-20T22:19:14.687Z,36.40
2022-09-20T22:21:44.463Z,36.40
2022-09-20T22:24:15.015Z,36.40
2022-09-20T22:26:46.402Z,36.20
2022-09-20T22:29:15.128Z,36.20
2022-09-20T22:31:45.925Z,37.20
2022-09-20T22:34:18.386Z,37.00
2022-09-20T22:36:47.488Z,37.20
2022-09-20T22:39:15.862Z,36.80
2022-09-20T22:41:44.819Z,36.30
2022-09-20T22:44:13.239Z,36.60
2022-09-20T22:46:41.469Z,37.10
2022-09-20T22:49:10.276Z,37.20
2022-09-20T22:51:39.951Z,37.50
2022-09-20T22:54:10.670Z,37.30
2022-09-20T22:56:41.181Z,37.30
2022-09-20T22:59:11.435Z,37.30
2022-09-20T23:01:42.640Z,37.90
2022-09-20T23:04:13.391Z,37.60
2022-09-20T23:06:46.837Z,37.90
2022-09-20T23:09:17.608Z,37.70
2022-09-20T23:11:46.610Z,37.70
2022-09-20T23:14:16.965Z,38.00
2022-09-20T23:16:46.460Z,38.00
2022-09-20T23:19:15.514Z,38.10
2022-09-20T23:21:45.602Z,38.00
2022-09-20T23:24:16.037Z,37.50
2022-09-20T23:26:45.503Z,38.20
2022-09-20T23:29:15.610Z,38.30
2022-09-20T23:31:46.470Z,38.40
2022-09-20T23:34:15.897Z,38.40
2022-09-20T23:36:46.044Z,38.50
2022-09-20T23:39:14.801Z,38.30
2022-09-20T23:41:45.929Z,38.20
2022-09-20T23:44:16.548Z,39.40
2022-09-20T23:46:44.513Z,38.90
2022-09-20T23:49:12.481Z,38.70
2022-09-20T23:51:40.504Z,39.00
2022-09-20T23:54:09.817Z,39.10
2022-09-20T23:56:38.128Z,39.10
2022-09-20T23:59:06.124Z,39.20
